createdAt,value
2022-11-22T00:04:15.326Z,100.00
2022-11-22T00:14:36.772Z,100.00
2022-11-22T00:24:58.437Z,100.00
2022-11-22T00:35:20.165Z,100.00
2022-11-22T00:45:41.967Z,100.00
2022-11-22T00:56:03.468Z,100.00
2022-11-22T01:06:24.914Z,100.00
2022-11-22T01:16:47.435Z,99.76
2022-11-22T01:27:08.983Z,99.78
2022-11-22T01:37:30.430Z,98.75
2022-11-22T01:47:52.988Z,99.34
2022-11-22T01:58:15.528Z,99.50
2022-11-22T02:09:02.302Z,98.57
2022-11-22T02:19:39.182Z,98.62
2022-11-22T02:30:00.665Z,98.60
2022-11-22T02:40:23.413Z,99.28
2022-11-22T02:50:45.004Z,100.00
2022-11-22T03:01:06.473Z,100.00
2022-11-22T03:11:28.041Z,100.00
2022-11-22T03:21:50.159Z,100.00
2022-11-22T03:32:11.720Z,100.00
2022-11-22T03:42:33.185Z,100.00
2022-11-22T03:52:54.609Z,100.00
2022-11-22T04:03:17.137Z,100.00
2022-11-22T04:13:57.263Z,100.00
2022-11-22T04:24:37.467Z,100.00
2022-11-22T04:34:58.924Z,100.00
2022-11-22T04:45:20.627Z,100.00
2022-11-22T04:55:46.202Z,100.00
2022-11-22T05:06:07.671Z,100.00
2022-11-22T05:16:29.228Z,100.00
2022-11-22T05:26:50.658Z,100.00
2022-11-22T05:37:12.127Z,100.00
2022-11-22T05:47:35.490Z,100.00
2022-11-22T05:58:03.990Z,100.00
2022-11-22T06:08:25.576Z,100.00
2022-11-22T06:18:47.620Z,100.00
2022-11-22T06:29:09.316Z,100.00
2022-11-22T06:39:31.381Z,100.00
2022-11-22T06:49:53.038Z,100.00
2022-11-22T07:00:15.094Z,100.00
2022-11-22T07:10:36.935Z,100.00
2022-11-22T07:21:04.734Z,100.00
2022-11-22T07:31:28.438Z,100.00
2022-11-22T07:41:49.909Z,100.00
2022-11-22T07:52:11.358Z,100.00
2022-11-22T08:02:32.907Z,100.00
2022-11-22T08:12:58.073Z,100.00
2022-11-22T08:23:19.867Z,100.00
2022-11-22T08:33:41.538Z,100.00
2022-11-22T08:44:03.442Z,100.00
2022-11-22T08:54:24.957Z,100.00
2022-11-22T09:04:46.394Z,100.00
2022-11-22T09:15:08.182Z,100.00
2022-11-22T09:25:29.639Z,100.00
2022-11-22T09:35:51.086Z,100.00
2022-11-22T09:46:32.872Z,100.00
2022-11-22T09:56:57.649Z,100.00
2022-11-22T10:07:24.811Z,100.00
2022-11-22T10:17:58.430Z,100.00
2022-11-22T10:28:35.859Z,100.00
2022-11-22T10:39:00.370Z,100.00
2022-11-22T10:49:41.908Z,100.00
2022-11-22T11:00:18.376Z,100.00
2022-11-22T11:10:40.901Z,100.00
2022-11-22T11:21:02.447Z,100.00
2022-11-22T11:31:42.682Z,100.00
2022-11-22T11:42:25.157Z,100.00
2022-11-22T11:53:03.025Z,100.00
2022-11-22T12:03:25.487Z,100.00
2022-11-22T12:14:18.979Z,100.00
2022-11-22T12:35:27.416Z,100.00
2022-11-22T12:45:53.811Z,100.00
2022-11-22T12:48:22.381Z,100.00
2022-11-22T12:56:33.305Z,100.00
2022-11-22T13:07:19.959Z,100.00
2022-11-22T13:17:41.486Z,100.00
2022-11-22T13:28:11.181Z,100.00
2022-11-22T13:38:32.711Z,100.00
2022-11-22T13:48:54.522Z,100.00
2022-11-22T13:59:18.293Z,100.00
2022-11-22T14:09:44.667Z,100.00
2022-11-22T14:20:34.075Z,100.00
2022-11-22T14:30:57.330Z,100.00
2022-11-22T14:41:38.910Z,100.00
2022-11-22T14:52:01.600Z,100.00
2022-11-22T15:03:00.791Z,100.00
2022-11-22T15:13:38.249Z,100.00
2022-11-22T16:07:27.289Z,100.00
2022-11-22T16:17:59.465Z,100.00
2022-11-22T16:28:38.162Z,100.00
2022-11-22T16:38:59.647Z,100.00
2022-11-22T16:49:22.732Z,100.00
2022-11-22T16:59:44.207Z,100.00
2022-11-22T17:10:06.286Z,100.00
2022-11-22T17:20:27.650Z,100.00
2022-11-22T17:30:50.323Z,100.00
2022-11-22T17:41:11.768Z,100.00
2022-11-22T17:51:33.349Z,100.00
2022-11-22T18:01:54.884Z,100.00
2022-11-22T18:12:16.377Z,100.00
2022-11-22T18:22:37.856Z,100.00
2022-11-22T18:33:00.358Z,100.00
2022-11-22T18:43:21.839Z,100.00
2022-11-22T18:53:43.472Z,100.00
2022-11-22T19:04:05.194Z,100.00
2022-11-22T19:14:29.015Z,100.00
2022-11-22T19:24:51.434Z,100.00
2022-11-22T19:35:13.194Z,100.00
2022-11-22T19:45:34.640Z,100.00
2022-11-22T19:56:01.955Z,100.00
2022-11-22T20:06:23.996Z,100.00
2022-11-22T20:16:45.400Z,100.00
2022-11-22T20:27:09.135Z,100.00
2022-11-22T20:37:30.582Z,100.00
2022-11-22T20:47:52.028Z,100.00
2022-11-22T20:58:13.486Z,100.00
2022-11-22T21:08:35.171Z,100.00
2022-11-22T21:19:00.916Z,100.00
2022-11-22T21:29:22.371Z,100.00
2022-11-22T21:39:44.311Z,100.00
2022-11-22T21:50:11.470Z,100.00
2022-11-22T22:00:33.460Z,100.00
2022-11-22T22:10:58.403Z,100.00
2022-11-22T22:21:21.099Z,100.00
2022-11-22T22:31:42.555Z,100.00
2022-11-22T22:42:04.175Z,100.00
2022-11-22T22:52:25.639Z,100.00
2022-11-22T23:02:47.380Z,100.00
2022-11-22T23:13:08.887Z,100.00
2022-11-22T23:23:30.862Z,100.00
2022-11-22T23:33:52.340Z,100.00
2022-11-22T23:44:13.990Z,100.00
2022-11-22T23:54:35.443Z,100.00
